createdAt,value
2022-10-05T00:01:44.584Z,5.50
2022-10-05T00:04:32.747Z,5.88
2022-10-05T00:07:21.667Z,5.93
2022-10-05T00:10:17.137Z,5.72
2022-10-05T00:13:11.342Z,5.60
2022-10-05T00:16:05.850Z,5.60
2022-10-05T00:18:54.160Z,5.53
2022-10-05T00:21:41.667Z,5.68
2022-10-05T00:24:30.034Z,5.65
2022-10-05T00:27:23.220Z,6.20
2022-10-05T00:30:19.174Z,5.47
2022-10-05T00:33:06.681Z,5.40
2022-10-05T00:35:54.976Z,5.30
2022-10-05T00:38:42.723Z,5.07
2022-10-05T00:42:10.352Z,5.03
2022-10-05T00:45:22.096Z,5.47
2022-10-05T00:48:14.789Z,4.57
2022-10-05T00:51:19.316Z,5.03
2022-10-05T00:54:17.442Z,5.00
2022-10-05T00:57:23.710Z,4.75
2022-10-05T01:00:18.996Z,5.20
2022-10-05T01:03:18.720Z,5.15
2022-10-05T01:06:30.356Z,5.70
2022-10-05T01:09:17.866Z,5.72
2022-10-05T01:12:28.935Z,5.53
2022-10-05T01:15:16.542Z,5.00
2022-10-05T01:18:18.082Z,5.30
2022-10-05T01:21:22.029Z,5.22
2022-10-05T01:24:34.177Z,5.22
2022-10-05T01:28:03.032Z,6.15
2022-10-05T01:31:08.817Z,5.30
2022-10-05T01:34:11.453Z,5.45
2022-10-05T01:37:37.308Z,5.05
2022-10-05T01:40:24.818Z,5.32
2022-10-05T01:43:17.852Z,5.05
2022-10-05T01:46:40.304Z,5.45
2022-10-05T01:49:44.209Z,5.32
2022-10-05T01:52:40.391Z,5.38
2022-10-05T01:55:28.030Z,5.63
2022-10-05T01:58:34.106Z,6.03
2022-10-05T02:01:38.772Z,5.45
2022-10-05T02:05:02.935Z,5.60
2022-10-05T02:08:00.157Z,5.65
2022-10-05T02:10:57.564Z,5.57
2022-10-05T02:13:58.439Z,6.32
2022-10-05T02:16:48.615Z,5.32
2022-10-05T02:19:49.571Z,5.60
2022-10-05T02:22:45.627Z,5.85
2022-10-05T02:25:40.120Z,5.65
2022-10-05T02:29:06.149Z,5.68
2022-10-05T02:31:58.329Z,5.82
2022-10-05T02:34:46.494Z,5.90
2022-10-05T02:38:00.441Z,6.05
2022-10-05T02:41:03.048Z,5.53
2022-10-05T02:44:03.995Z,6.32
2022-10-05T02:46:59.829Z,5.82
2022-10-05T02:50:15.124Z,6.18
2022-10-05T02:53:43.992Z,5.75
2022-10-05T02:56:54.114Z,5.75
2022-10-05T02:59:42.671Z,5.88
2022-10-05T03:02:52.426Z,5.80
2022-10-05T03:05:58.269Z,5.60
2022-10-05T03:09:08.161Z,5.82
2022-10-05T03:12:28.990Z,6.18
2022-10-05T03:15:18.931Z,5.95
2022-10-05T03:18:06.473Z,6.70
2022-10-05T03:21:18.181Z,6.13
2022-10-05T03:24:20.440Z,6.22
2022-10-05T03:27:34.659Z,6.07
2022-10-05T03:30:25.621Z,6.05
2022-10-05T03:33:21.286Z,6.78
2022-10-05T03:36:22.703Z,6.25
2022-10-05T03:39:10.828Z,5.78
2022-10-05T03:42:14.855Z,5.88
2022-10-05T03:45:24.222Z,5.68
2022-10-05T03:48:15.532Z,6.10
2022-10-05T03:51:17.377Z,6.65
2022-10-05T03:54:27.571Z,6.43
2022-10-05T03:57:25.998Z,6.80
2022-10-05T04:00:17.825Z,6.07
2022-10-05T04:03:27.095Z,6.32
2022-10-05T04:06:27.919Z,6.95
2022-10-05T04:09:39.411Z,6.55
2022-10-05T04:12:41.292Z,7.28
2022-10-05T04:15:41.015Z,7.90
2022-10-05T04:18:43.861Z,7.05
2022-10-05T04:21:43.492Z,6.63
2022-10-05T04:24:46.194Z,6.43
2022-10-05T04:27:41.326Z,6.88
2022-10-05T04:30:30.602Z,6.50
2022-10-05T04:33:18.250Z,6.75
2022-10-05T04:36:24.205Z,6.57
2022-10-05T04:39:36.401Z,6.13
2022-10-05T04:42:51.193Z,6.93
2022-10-05T04:46:02.920Z,6.97
2022-10-05T04:49:13.846Z,7.47
2022-10-05T04:52:20.225Z,7.07
2022-10-05T04:55:08.628Z,7.40
2022-10-05T04:58:42.550Z,7.32
2022-10-05T05:02:01.361Z,6.88
2022-10-05T05:05:14.829Z,7.90
2022-10-05T05:08:07.326Z,7.80
2022-10-05T05:11:04.479Z,7.35
2022-10-05T05:14:07.073Z,6.68
2022-10-05T05:17:31.420Z,7.05
2022-10-05T05:20:54.680Z,7.55
2022-10-05T05:24:02.224Z,7.47
2022-10-05T05:27:18.815Z,8.45
2022-10-05T05:30:20.282Z,7.68
2022-10-05T05:33:27.795Z,8.50
2022-10-05T05:36:23.773Z,7.55
2022-10-05T05:39:14.504Z,7.55
2022-10-05T05:42:38.078Z,8.45
2022-10-05T05:45:43.058Z,7.82
2022-10-05T05:48:45.511Z,8.05
2022-10-05T05:51:45.836Z,8.15
2022-10-05T05:54:39.236Z,8.38
2022-10-05T05:57:32.461Z,8.40
2022-10-05T06:00:20.316Z,8.40
2022-10-05T06:03:26.040Z,7.38
2022-10-05T06:06:18.130Z,8.50
2022-10-05T06:09:39.081Z,8.02
2022-10-05T06:12:40.540Z,8.38
2022-10-05T06:15:52.485Z,8.40
2022-10-05T06:18:44.450Z,8.40
2022-10-05T06:22:09.077Z,8.13
2022-10-05T06:25:11.830Z,7.70
2022-10-05T06:28:12.820Z,8.02
2022-10-05T06:31:29.782Z,8.50
2022-10-05T06:34:19.687Z,8.38
2022-10-05T06:37:15.374Z,8.15
2022-10-05T06:40:30.189Z,8.30
2022-10-05T06:43:41.957Z,7.90
2022-10-05T06:47:16.324Z,7.45
2022-10-05T06:50:35.388Z,7.60
2022-10-05T06:53:52.189Z,7.55
2022-10-05T06:56:51.195Z,7.35
2022-10-05T07:00:07.419Z,7.20
2022-10-05T07:03:22.044Z,7.70
2022-10-05T07:06:25.323Z,7.07
2022-10-05T07:09:37.364Z,7.22
2022-10-05T07:12:24.936Z,8.00
2022-10-05T07:15:21.462Z,7.65
2022-10-05T07:18:36.050Z,6.97
2022-10-05T07:21:47.144Z,7.60
2022-10-05T07:24:34.867Z,8.07
2022-10-05T07:27:27.762Z,10.27
2022-10-05T07:30:15.991Z,38.92
2022-10-05T07:33:28.984Z,16.48
2022-10-05T07:36:58.669Z,10.18
2022-10-05T07:40:03.465Z,16.75
2022-10-05T07:43:04.012Z,17.23
2022-10-05T07:46:23.617Z,11.95
2022-10-05T07:49:26.627Z,15.70
2022-10-05T07:52:24.587Z,11.55
2022-10-05T07:55:19.892Z,10.18
2022-10-05T07:58:13.513Z,13.13
2022-10-05T08:01:02.040Z,16.67
2022-10-05T08:04:00.245Z,10.77
2022-10-05T08:07:06.560Z,15.73
2022-10-05T08:10:05.751Z,16.75
2022-10-05T08:13:19.951Z,14.70
2022-10-05T08:16:14.574Z,9.70
2022-10-05T08:19:08.237Z,9.40
2022-10-05T08:22:09.534Z,20.70
2022-10-05T08:25:04.597Z,13.65
2022-10-05T08:28:09.984Z,17.52
2022-10-05T08:31:08.095Z,10.23
2022-10-05T08:34:10.516Z,13.02
2022-10-05T08:37:27.325Z,8.93
2022-10-05T08:40:29.532Z,9.77
2022-10-05T08:43:25.700Z,14.27
2022-10-05T08:46:13.386Z,8.98
2022-10-05T08:49:35.032Z,15.98
2022-10-05T08:52:22.959Z,9.52
2022-10-05T08:55:10.646Z,16.02
2022-10-05T08:58:25.205Z,9.18
2022-10-05T09:01:21.406Z,5.97
2022-10-05T09:04:30.749Z,8.88
2022-10-05T09:07:40.632Z,5.68
2022-10-05T09:10:28.150Z,15.82
2022-10-05T09:13:27.024Z,21.73
2022-10-05T09:16:14.606Z,7.63
2022-10-05T09:19:02.132Z,10.48
2022-10-05T09:21:56.905Z,33.42
2022-10-05T09:25:19.131Z,5.80
2022-10-05T09:28:22.694Z,5.88
2022-10-05T09:31:10.431Z,5.63
2022-10-05T09:34:22.360Z,6.03
2022-10-05T09:37:34.989Z,6.40
2022-10-05T09:40:27.894Z,5.85
2022-10-05T09:43:33.448Z,6.30
2022-10-05T09:46:53.912Z,5.97
2022-10-05T09:49:59.582Z,5.80
2022-10-05T09:52:58.999Z,5.25
2022-10-05T09:56:20.302Z,5.40
2022-10-05T09:59:29.317Z,5.13
2022-10-05T10:02:38.789Z,4.95
2022-10-05T10:06:01.275Z,5.03
2022-10-05T10:09:42.936Z,5.05
2022-10-05T10:13:11.237Z,4.88
2022-10-05T10:15:59.437Z,4.70
2022-10-05T10:19:18.992Z,4.43
2022-10-05T10:22:14.547Z,4.30
2022-10-05T10:25:20.527Z,4.60
2022-10-05T10:28:16.222Z,4.22
2022-10-05T10:31:17.875Z,3.92
2022-10-05T10:34:23.143Z,4.13
2022-10-05T10:37:34.976Z,4.60
2022-10-05T10:40:55.668Z,7.22
2022-10-05T10:43:51.638Z,8.13
2022-10-05T10:46:39.545Z,4.95
2022-10-05T10:49:54.701Z,4.68
2022-10-05T10:53:00.658Z,4.30
2022-10-05T10:55:48.244Z,4.28
2022-10-05T10:59:12.739Z,4.05
2022-10-05T11:02:11.544Z,3.83
2022-10-05T11:05:23.038Z,3.85
2022-10-05T11:08:33.292Z,3.55
2022-10-05T11:11:58.616Z,4.10
2022-10-05T11:14:57.746Z,3.72
2022-10-05T11:18:00.164Z,3.97
2022-10-05T11:21:12.237Z,4.18
2022-10-05T11:24:18.239Z,4.00
2022-10-05T11:27:24.412Z,3.92
2022-10-05T11:30:11.927Z,3.53
2022-10-05T11:33:20.051Z,3.60
2022-10-05T11:36:29.078Z,3.42
2022-10-05T11:39:47.200Z,3.80
2022-10-05T11:43:13.056Z,3.42
2022-10-05T11:46:03.403Z,2.97
2022-10-05T11:49:21.227Z,3.60
2022-10-05T11:52:42.213Z,3.13
2022-10-05T11:55:57.737Z,3.22
2022-10-05T11:58:54.726Z,3.22
2022-10-05T12:02:17.292Z,2.83
2022-10-05T12:05:34.189Z,2.97
2022-10-05T12:08:48.290Z,2.58
2022-10-05T12:11:45.223Z,2.83
2022-10-05T12:14:37.201Z,2.45
2022-10-05T12:17:30.159Z,2.50
2022-10-05T12:20:28.172Z,2.80
2022-10-05T12:23:33.470Z,2.13
2022-10-05T12:26:21.141Z,2.60
2022-10-05T12:29:13.598Z,2.40
2022-10-05T12:32:13.348Z,2.40
2022-10-05T12:35:36.531Z,2.20
2022-10-05T12:38:45.057Z,2.53
2022-10-05T12:41:51.284Z,2.58
2022-10-05T12:45:08.891Z,2.40
2022-10-05T12:48:44.440Z,2.22
2022-10-05T12:51:31.975Z,2.42
2022-10-05T12:54:40.373Z,2.08
2022-10-05T12:57:45.530Z,2.33
2022-10-05T13:00:38.466Z,1.85
2022-10-05T13:03:36.853Z,2.22
2022-10-05T13:06:47.190Z,2.25
2022-10-05T13:09:34.682Z,2.00
2022-10-05T13:12:37.648Z,2.15
2022-10-05T13:15:37.465Z,2.38
2022-10-05T13:18:49.821Z,15.88
2022-10-05T13:21:40.856Z,2.42
2022-10-05T13:24:56.729Z,2.97
2022-10-05T13:28:09.269Z,3.80
2022-10-05T13:31:06.666Z,2.65
2022-10-05T13:34:31.243Z,4.47
2022-10-05T13:37:44.693Z,2.83
2022-10-05T13:40:54.422Z,2.70
2022-10-05T13:43:53.383Z,6.00
2022-10-05T13:46:50.158Z,2.42
2022-10-05T13:49:48.297Z,2.45
2022-10-05T13:52:50.469Z,2.33
2022-10-05T13:55:46.388Z,2.92
2022-10-05T13:58:59.569Z,4.00
2022-10-05T14:01:56.030Z,3.35
2022-10-05T14:05:00.944Z,13.63
2022-10-05T14:07:48.478Z,2.88
2022-10-05T14:10:47.316Z,2.60
2022-10-05T14:13:46.604Z,2.67
2022-10-05T14:16:35.554Z,3.10
2022-10-05T14:19:30.783Z,2.75
2022-10-05T14:22:22.416Z,3.17
2022-10-05T14:25:09.906Z,2.83
2022-10-05T14:28:12.056Z,2.83
2022-10-05T14:31:10.895Z,3.03
2022-10-05T14:34:29.306Z,2.70
2022-10-05T14:37:26.022Z,2.60
2022-10-05T14:40:25.106Z,2.67
2022-10-05T14:43:15.009Z,2.35
2022-10-05T14:46:25.095Z,2.85
2022-10-05T14:49:22.868Z,3.22
2022-10-05T14:52:32.421Z,2.40
2022-10-05T14:55:34.575Z,2.45
2022-10-05T14:58:55.541Z,2.53
2022-10-05T15:02:12.725Z,2.17
2022-10-05T15:05:16.996Z,2.30
2022-10-05T15:08:41.505Z,2.25
2022-10-05T15:11:42.574Z,2.72
2022-10-05T15:14:42.960Z,2.20
2022-10-05T15:17:40.743Z,2.22
2022-10-05T15:20:57.284Z,2.67
2022-10-05T15:23:52.848Z,2.38
2022-10-05T15:26:40.361Z,2.15
2022-10-05T15:29:27.819Z,2.03
2022-10-05T15:32:20.717Z,2.22
2022-10-05T15:35:28.718Z,2.40
2022-10-05T15:38:28.849Z,2.35
2022-10-05T15:41:22.444Z,2.80
2022-10-05T15:44:41.450Z,3.00
2022-10-05T15:47:35.579Z,15.30
2022-10-05T15:51:00.523Z,3.42
2022-10-05T15:54:41.639Z,6.15
2022-10-05T15:58:10.335Z,7.63
2022-10-05T16:01:18.856Z,6.15
2022-10-05T16:04:19.068Z,3.22
2022-10-05T16:07:35.761Z,5.55
2022-10-05T16:10:27.050Z,10.43
2022-10-05T16:13:42.269Z,7.25
2022-10-05T16:16:49.529Z,6.10
2022-10-05T16:19:37.181Z,4.93
2022-10-05T16:23:18.504Z,5.88
2022-10-05T16:26:32.578Z,9.88
2022-10-05T16:30:01.957Z,22.55
2022-10-05T16:33:10.759Z,4.70
2022-10-05T16:36:10.290Z,3.47
2022-10-05T16:39:09.811Z,3.58
2022-10-05T16:42:05.698Z,4.13
2022-10-05T16:45:45.090Z,3.60
2022-10-05T16:48:44.632Z,3.90
2022-10-05T16:51:32.230Z,3.50
2022-10-05T16:54:36.133Z,3.60
2022-10-05T16:57:35.961Z,6.18
2022-10-05T17:00:28.769Z,4.15
2022-10-05T17:03:38.918Z,4.10
2022-10-05T17:06:49.839Z,5.38
2022-10-05T17:09:37.347Z,5.07
2022-10-05T17:12:54.495Z,4.70
2022-10-05T17:16:10.885Z,5.18
2022-10-05T17:19:03.998Z,4.97
2022-10-05T17:22:00.632Z,5.97
2022-10-05T17:25:11.515Z,5.05
2022-10-05T17:28:21.038Z,5.22
2022-10-05T17:31:08.748Z,4.47
2022-10-05T17:34:17.960Z,4.47
2022-10-05T17:37:35.475Z,4.57
2022-10-05T17:40:40.428Z,4.30
2022-10-05T17:43:30.720Z,4.28
2022-10-05T17:46:40.233Z,4.50
2022-10-05T17:50:13.886Z,4.40
2022-10-05T17:53:39.152Z,4.55
2022-10-05T17:56:27.072Z,3.97
2022-10-05T17:59:45.932Z,4.68
2022-10-05T18:02:37.027Z,4.57
2022-10-05T18:05:27.830Z,4.22
2022-10-05T18:08:16.505Z,5.07
2022-10-05T18:11:11.735Z,5.43
2022-10-05T18:14:19.339Z,5.28
2022-10-05T18:17:13.800Z,4.80
2022-10-05T18:20:25.453Z,4.10
2022-10-05T18:23:13.424Z,5.13
2022-10-05T18:26:06.940Z,6.43
2022-10-05T18:29:38.072Z,8.13
2022-10-05T18:32:25.981Z,5.32
2022-10-05T18:35:20.221Z,4.47
2022-10-05T18:38:41.722Z,4.40
2022-10-05T18:41:29.207Z,5.60
2022-10-05T18:44:35.042Z,4.68
2022-10-05T18:47:53.297Z,4.88
2022-10-05T18:50:57.552Z,3.70
2022-10-05T18:53:45.082Z,3.60
2022-10-05T18:56:48.638Z,3.85
2022-10-05T19:00:04.082Z,3.60
2022-10-05T19:02:51.587Z,2.88
2022-10-05T19:05:53.366Z,2.55
2022-10-05T19:08:49.606Z,2.17
2022-10-05T19:12:00.578Z,2.40
2022-10-05T19:15:25.587Z,2.22
2022-10-05T19:18:29.052Z,2.28
2022-10-05T19:22:03.977Z,2.63
2022-10-05T19:25:26.968Z,1.90
2022-10-05T19:28:48.530Z,2.50
2022-10-05T19:31:59.971Z,2.30
2022-10-05T19:34:56.491Z,2.30
2022-10-05T19:38:22.005Z,1.63
2022-10-05T19:41:22.446Z,2.50
2022-10-05T19:44:35.943Z,2.20
2022-10-05T19:47:43.912Z,2.20
2022-10-05T19:50:33.805Z,2.25
2022-10-05T19:53:36.966Z,2.55
2022-10-05T19:56:26.489Z,2.42
2022-10-05T19:59:19.364Z,2.53
2022-10-05T20:02:06.880Z,2.33
2022-10-05T20:04:54.980Z,2.35
2022-10-05T20:07:42.600Z,2.00
2022-10-05T20:10:30.852Z,2.85
2022-10-05T20:13:20.886Z,2.53
2022-10-05T20:16:39.863Z,2.65
2022-10-05T20:19:46.128Z,6.68
2022-10-05T20:22:40.201Z,2.50
2022-10-05T20:25:28.765Z,2.80
2022-10-05T20:28:30.703Z,5.07
2022-10-05T20:31:20.153Z,3.75
2022-10-05T20:34:08.034Z,4.25
2022-10-05T20:36:55.572Z,3.55
2022-10-05T20:39:43.543Z,3.03
2022-10-05T20:42:31.154Z,3.17
2022-10-05T20:45:18.764Z,5.82
2022-10-05T20:48:06.272Z,2.28
2022-10-05T20:50:54.171Z,2.78
2022-10-05T20:53:41.685Z,2.35
2022-10-05T20:56:30.504Z,2.28
2022-10-05T20:59:18.251Z,2.58
2022-10-05T21:02:06.311Z,2.03
2022-10-05T21:04:53.875Z,2.20
2022-10-05T21:07:41.601Z,2.25
2022-10-05T21:10:29.102Z,2.17
2022-10-05T21:13:17.567Z,2.10
2022-10-05T21:16:07.559Z,2.15
2022-10-05T21:18:55.156Z,2.20
2022-10-05T21:21:44.982Z,2.40
2022-10-05T21:24:32.479Z,2.25
2022-10-05T21:27:19.958Z,2.25
2022-10-05T21:30:07.945Z,2.30
2022-10-05T21:32:55.523Z,2.10
2022-10-05T21:35:43.118Z,2.47
2022-10-05T21:38:30.988Z,2.40
2022-10-05T21:41:18.887Z,2.22
2022-10-05T21:44:06.723Z,2.25
2022-10-05T21:46:55.397Z,1.90
2022-10-05T21:49:42.975Z,2.38
2022-10-05T21:52:30.845Z,2.00
2022-10-05T21:55:19.478Z,2.58
2022-10-05T21:58:07.048Z,2.30
2022-10-05T22:00:54.647Z,1.90
2022-10-05T22:03:42.262Z,2.15
2022-10-05T22:06:29.820Z,1.60
2022-10-05T22:09:17.344Z,1.70
2022-10-05T22:12:05.503Z,1.98
2022-10-05T22:14:53.031Z,2.20
2022-10-05T22:17:40.803Z,2.88
2022-10-05T22:20:28.590Z,5.50
2022-10-05T22:23:16.224Z,3.00
2022-10-05T22:26:03.800Z,5.43
2022-10-05T22:28:55.077Z,1.88
2022-10-05T22:31:42.952Z,2.70
2022-10-05T22:34:30.938Z,1.85
2022-10-05T22:37:18.495Z,6.57
2022-10-05T22:40:07.114Z,2.03
2022-10-05T22:42:54.587Z,2.05
2022-10-05T22:45:42.454Z,1.98
2022-10-05T22:48:30.390Z,1.73
2022-10-05T22:51:18.370Z,1.95
2022-10-05T22:54:06.033Z,2.00
2022-10-05T22:56:53.503Z,1.83
2022-10-05T22:59:41.022Z,1.92
2022-10-05T23:02:28.647Z,1.90
2022-10-05T23:05:17.143Z,1.73
2022-10-05T23:08:04.689Z,1.92
2022-10-05T23:10:52.548Z,1.80
2022-10-05T23:13:40.561Z,1.58
2022-10-05T23:16:29.061Z,2.10
2022-10-05T23:19:17.043Z,1.92
2022-10-05T23:22:04.584Z,1.98
2022-10-05T23:24:52.505Z,2.30
2022-10-05T23:27:41.311Z,1.83
2022-10-05T23:30:28.922Z,2.17
2022-10-05T23:33:16.510Z,1.83
2022-10-05T23:36:09.401Z,1.88
2022-10-05T23:38:56.887Z,2.03
2022-10-05T23:41:44.501Z,1.85
2022-10-05T23:44:32.019Z,2.10
2022-10-05T23:47:19.503Z,2.05
2022-10-05T23:50:08.337Z,2.30
2022-10-05T23:52:55.882Z,2.08
2022-10-05T23:55:43.500Z,2.30
2022-10-05T23:58:31.226Z,1.90
